This is the latest recevied weather packets stored in our database for station/object EA3ANS-1. If no packets are shown the sender has not sent any weather packets the latest 10 day(s).
| Time | Temp. | Humidity | Pressure | Rain* | Wind** | Luminosity | Snow |
|---|---|---|---|---|---|---|---|
| 1787788593 | 25.56° C | - | 1010.7 hPa | 0 mm | 0 m/s | - | - |
| 1787787993 | 25° C | - | 1010.8 hPa | 0 mm | 0 m/s | - | - |
| 1787787395 | 25° C | - | 1010.9 hPa | 0 mm | 0 m/s | - | - |
| 1787786795 | 25° C | - | 1010.8 hPa | 0 mm | 0 m/s | - | - |
| 1787786191 | 25° C | - | 1010.6 hPa | 0 mm | 0 m/s | - | - |
| 1787785592 | 25° C | - | 1010.8 hPa | 0 mm | 0.89 m/s, 24° | - | - |
| 1787784990 | 25.56° C | - | 1010.8 hPa | 0 mm | 0.45 m/s, 193° | - | - |
| 1787784391 | 25.56° C | - | 1010.8 hPa | 0 mm | 0 m/s | - | - |
| 1787783789 | 25.56° C | - | 1010.6 hPa | 0 mm | 0 m/s | - | - |
| 1787783192 | 25.56° C | - | 1010.4 hPa | 0 mm | 0.45 m/s, 266° | - | - |
| 1787782593 | 26.11° C | - | 1010.3 hPa | 0 mm | 0 m/s | - | - |
| 1787781986 | 25.56° C | - | 1010.2 hPa | 0 mm | 0 m/s | - | - |
| 1787781388 | 26.11° C | - | 1010.3 hPa | 0 mm | 0.45 m/s, 183° | - | - |
| 1787780791 | 26.11° C | - | 1010.2 hPa | 0 mm | 0.89 m/s, 121° | - | - |
| 1787780194 | 26.11° C | - | 1010.1 hPa | 0 mm | 0.89 m/s, 103° | - | - |
| 1787779596 | 26.11° C | - | 1010.1 hPa | 0 mm | 0 m/s | - | - |
| 1787778998 | 26.67° C | - | 1010.1 hPa | 0 mm | 0.89 m/s, 129° | - | - |
| 1787778400 | 26.11° C | - | 1010 hPa | 0 mm | 0 m/s | - | - |
| 1787777786 | 26.67° C | - | 1009.9 hPa | 0 mm | 1.34 m/s, 77° | - | - |
| 1787777186 | 26.67° C | - | 1010.1 hPa | 0 mm | 0.45 m/s, 89° | - | - |
| 1787776589 | 26.67° C | - | 1009.9 hPa | 0 mm | 2.24 m/s, 110° | - | - |
| 1787775991 | 26.67° C | - | 1010.1 hPa | 0 mm | 1.34 m/s, 103° | - | - |
| 1787775390 | 26.67° C | - | 1010.1 hPa | 0 mm | 1.79 m/s, 124° | - | - |
| 1787774790 | 27.22° C | - | 1010 hPa | 0 mm | 1.34 m/s, 127° | - | - |
| 1787774193 | 27.22° C | - | 1009.9 hPa | 0 mm | 1.79 m/s, 115° | - | - |
* Rain latest hour (hover to see other rain measurements)
** Current wind speed in m/s (hover to see current wind gust speed)